Aérodrome :
LOGIN :

S'inscrire | Disclaimer

   EN    FR    IT 

 










Légende :    VFR   VFR Marginal   IFR   IFR Intensif   IFR Très Intensif
Visi : 
Plafond : 
>= 8 km
>= 3000ft
5 à 8 km
1000 à 3000 ft
1500m à 5 km
500 à 1000 ft
800 à 1500m
200 à 500 ft
< 800m
< 200 ft
Symboles :   Orages  Brouillard  Fortes neiges  Fortes précipitations  Vent > 20 kt
SIGMETs :   Divers  Orages  Givrage  Turbulence  Onde Orograph.  Cendres Volcan.






- Altitude de l'aérodrome : 28 ft
- Code IATA : SOZ


LFKS - Solenzara

DERNIER METAR :
  • 132100Z AUTO 27004KT 250V320 9999 FEW021 SCT036 BKN240 19/16 Q1021

METARs EXPIRÉS :
  • 132030Z AUTO 29004KT 250V340 9999 FEW022 BKN066 19/16 Q1021
  • 132000Z AUTO 29004KT 260V320 9999 BKN064 19/17 Q1021
  • 131930Z AUTO 31004KT 280V340 9999 SCT035 BKN052 OVC062 20/17 Q1021
  • 131900Z AUTO 30003KT 270V350 9999 BKN041 OVC054 20/17 Q1021
  • 131830Z AUTO 27004KT 250V310 9999 FEW060 20/17 Q1021

TAF AMD TAF LFKS
Valide du 13 à 12h jusqu'au 14 à 09h UTC


131259Z 1312/1409 14007KT 9999 SCT007 BKN045
TEMPO 1312/1317 BKN007
BECMG 1317/1321 VRB03KT BKN010
TEMPO 1317/1409 DZRA BKN007



MET'MAP, la Météo Aéronautique d'un coup d'oeil ! - Copyright ORBIFLY Décembre 2007 - Disclaimer

ORBIFLY MET'MAP TEAM :

Programmation & Développement : Alexandra Zaïnal
Conception & Développement : Baudouin d'Aumeries
Co-Programmation & Développement : Marc-Olivier Méhu
Soutien technique & logistique : Manuel Goepfert

Contact : metmap@orbifly.com




SOURCES & CREDITS :

   NOAA